createdAt,value
2023-02-04T00:00:54.916Z,5.38
2023-02-04T00:05:56.622Z,5.14
2023-02-04T00:10:58.223Z,4.40
2023-02-04T00:15:59.931Z,4.32
2023-02-04T00:21:01.741Z,4.25
2023-02-04T00:26:03.727Z,4.23
2023-02-04T00:31:05.632Z,4.19
2023-02-04T00:36:08.363Z,4.13
2023-02-04T00:41:09.999Z,3.97
2023-02-04T00:46:11.764Z,3.95
2023-02-04T00:51:13.519Z,3.80
2023-02-04T00:56:15.120Z,3.70
2023-02-04T01:01:17.576Z,3.64
2023-02-04T01:06:19.288Z,3.64
2023-02-04T01:11:20.989Z,3.63
2023-02-04T01:16:23.166Z,3.79
2023-02-04T01:21:25.287Z,3.75
2023-02-04T01:26:26.878Z,3.74
2023-02-04T01:31:31.478Z,3.78
2023-02-04T01:36:33.214Z,3.72
2023-02-04T01:41:34.864Z,3.83
2023-02-04T01:46:37.539Z,3.69
2023-02-04T01:51:39.898Z,3.46
2023-02-04T01:56:45.792Z,3.43
2023-02-04T02:01:50.224Z,3.39
2023-02-04T02:06:55.525Z,3.25
2023-02-04T02:11:57.823Z,3.22
2023-02-04T02:17:01.086Z,3.26
2023-02-04T02:22:13.337Z,3.46
2023-02-04T02:27:15.163Z,3.42
2023-02-04T02:32:17.542Z,3.51
2023-02-04T02:37:20.150Z,3.47
2023-02-04T02:42:21.915Z,3.30
2023-02-04T02:47:24.249Z,3.14
2023-02-04T02:52:25.876Z,3.06
2023-02-04T02:57:27.611Z,2.82
2023-02-04T03:02:29.619Z,2.82
2023-02-04T03:07:31.750Z,2.71
2023-02-04T03:12:33.970Z,2.74
2023-02-04T03:17:36.370Z,2.67
2023-02-04T03:22:38.128Z,2.71
2023-02-04T03:27:39.841Z,2.78
2023-02-04T03:32:41.833Z,2.75
2023-02-04T03:37:44.041Z,2.70
2023-02-04T03:42:45.645Z,2.67
2023-02-04T03:47:47.254Z,2.57
2023-02-04T03:52:50.193Z,2.51
2023-02-04T03:57:53.018Z,2.45
2023-02-04T04:02:54.705Z,2.48
2023-02-04T04:07:56.331Z,2.38
2023-02-04T04:12:57.991Z,2.29
2023-02-04T04:17:59.632Z,2.17
2023-02-04T04:23:01.268Z,2.08
2023-02-04T04:28:02.965Z,2.11
2023-02-04T04:33:04.627Z,2.18
2023-02-04T04:38:06.270Z,2.29
2023-02-04T04:43:07.936Z,2.29
2023-02-04T04:48:09.545Z,2.38
2023-02-04T04:53:11.462Z,2.28
2023-02-04T04:58:13.112Z,2.35
2023-02-04T05:03:14.709Z,2.28
2023-02-04T05:08:17.083Z,2.03
2023-02-04T05:13:18.762Z,1.91
2023-02-04T05:18:20.351Z,2.05
2023-02-04T05:23:21.949Z,2.05
2023-02-04T05:28:23.573Z,2.14
2023-02-04T05:33:25.160Z,2.04
2023-02-04T05:38:26.754Z,2.02
2023-02-04T05:43:28.369Z,1.88
2023-02-04T05:48:29.954Z,1.75
2023-02-04T05:53:32.046Z,1.61
2023-02-04T05:58:33.766Z,1.50
2023-02-04T06:03:35.529Z,1.54
2023-02-04T06:08:37.179Z,1.51
2023-02-04T06:13:38.834Z,1.52
2023-02-04T06:18:40.447Z,1.48
2023-02-04T06:23:42.063Z,1.44
2023-02-04T06:28:43.673Z,1.51
2023-02-04T06:33:45.273Z,1.47
2023-02-04T06:38:46.872Z,1.39
2023-02-04T06:43:48.474Z,1.42
2023-02-04T06:48:50.066Z,1.24
2023-02-04T06:53:52.578Z,1.22
2023-02-04T06:58:54.195Z,1.20
2023-02-04T07:03:55.808Z,1.08
2023-02-04T07:08:57.451Z,1.14
2023-02-04T07:13:59.086Z,1.14
2023-02-04T07:19:00.736Z,1.10
2023-02-04T07:24:02.542Z,1.26
2023-02-04T07:29:04.170Z,1.43
2023-02-04T07:34:06.518Z,1.41
2023-02-04T07:39:08.448Z,1.37
2023-02-04T07:44:10.082Z,1.51
2023-02-04T07:49:11.769Z,1.52
2023-02-04T07:54:13.415Z,1.63
2023-02-04T07:59:15.188Z,1.70
2023-02-04T08:04:16.801Z,1.81
2023-02-04T08:09:18.390Z,1.78
2023-02-04T08:14:19.978Z,2.30
2023-02-04T08:19:21.828Z,2.18
2023-02-04T08:24:23.418Z,2.10
2023-02-04T08:29:28.195Z,2.24
2023-02-04T08:34:30.299Z,2.78
2023-02-04T08:39:33.020Z,2.75
2023-02-04T08:44:34.655Z,2.88
2023-02-04T08:49:36.959Z,2.89
2023-02-04T08:54:38.576Z,2.79
2023-02-04T08:59:40.224Z,2.72
2023-02-04T09:04:41.850Z,3.35
2023-02-04T09:09:43.465Z,2.98
2023-02-04T09:14:45.051Z,3.09
2023-02-04T09:19:46.658Z,3.45
2023-02-04T09:24:48.304Z,3.81
2023-02-04T09:29:49.897Z,3.88
2023-02-04T09:34:51.922Z,3.66
2023-02-04T09:39:54.841Z,3.70
2023-02-04T09:44:57.232Z,4.14
2023-02-04T09:49:58.923Z,3.61
2023-02-04T09:55:00.555Z,4.41
2023-02-04T10:00:02.146Z,4.43
2023-02-04T10:05:07.101Z,4.25
2023-02-04T10:10:18.572Z,-142.80
2023-02-04T10:15:20.821Z,-142.80
2023-02-04T10:20:24.852Z,-142.80
2023-02-04T10:25:26.873Z,4.09
2023-02-04T10:30:33.803Z,4.59
2023-02-04T10:35:47.951Z,4.22
2023-02-04T10:41:01.212Z,4.73
2023-02-04T10:46:03.969Z,4.59
2023-02-04T10:51:05.623Z,4.48
2023-02-04T10:56:16.060Z,5.16
2023-02-04T11:01:17.735Z,5.26
2023-02-04T11:06:24.230Z,5.27
2023-02-04T11:11:26.566Z,4.85
2023-02-04T11:16:32.885Z,4.95
2023-02-04T11:21:34.460Z,4.75
2023-02-04T11:26:43.716Z,4.48
2023-02-04T11:31:59.026Z,5.17
2023-02-04T11:37:12.257Z,5.99
2023-02-04T11:42:41.610Z,5.78
2023-02-04T11:47:43.892Z,5.75
2023-02-04T11:52:45.706Z,5.78
2023-02-04T11:57:52.590Z,5.42
2023-02-04T12:03:04.614Z,5.17
2023-02-04T12:08:34.664Z,5.32
2023-02-04T12:13:49.536Z,4.94
2023-02-04T12:18:51.376Z,6.26
2023-02-04T12:23:52.984Z,5.18
2023-02-04T12:28:54.588Z,4.96
2023-02-04T12:33:56.292Z,4.86
2023-02-04T12:39:00.969Z,4.71
2023-02-04T12:44:02.997Z,4.94
2023-02-04T12:49:04.613Z,4.91
2023-02-04T12:54:06.279Z,4.42
2023-02-04T12:59:07.868Z,4.25
2023-02-04T13:04:09.456Z,4.15
2023-02-04T13:09:11.102Z,3.83
2023-02-04T13:14:12.749Z,3.94
2023-02-04T13:19:14.333Z,5.83
2023-02-04T13:24:16.303Z,9.44
2023-02-04T13:29:18.124Z,6.82
2023-02-04T13:34:19.940Z,5.48
2023-02-04T13:39:21.535Z,4.51
2023-02-04T13:44:23.201Z,4.17
2023-02-04T13:49:25.018Z,3.88
2023-02-04T13:54:26.672Z,3.93
2023-02-04T13:59:28.269Z,5.06
2023-02-04T14:04:29.916Z,6.17
2023-02-04T14:09:31.530Z,6.03
2023-02-04T14:14:33.182Z,6.91
2023-02-04T14:19:34.782Z,6.28
2023-02-04T14:24:36.730Z,6.46
2023-02-04T14:29:38.375Z,6.75
2023-02-04T14:34:39.983Z,5.71
2023-02-04T14:39:41.588Z,6.43
2023-02-04T14:44:43.250Z,6.75
2023-02-04T14:49:44.898Z,5.01
2023-02-04T14:54:46.484Z,4.49
2023-02-04T14:59:48.086Z,4.89
2023-02-04T15:04:49.732Z,4.12
2023-02-04T15:09:51.771Z,3.96
2023-02-04T15:14:53.446Z,3.81
2023-02-04T15:19:55.049Z,3.78
2023-02-04T15:24:56.687Z,3.64
2023-02-04T15:29:58.329Z,3.36
2023-02-04T15:34:59.950Z,3.36
2023-02-04T15:40:01.723Z,2.99
2023-02-04T15:45:04.570Z,2.90
2023-02-04T15:50:08.747Z,2.91
2023-02-04T15:55:10.457Z,2.74
2023-02-04T16:00:12.646Z,2.47
2023-02-04T16:05:14.361Z,2.46
2023-02-04T16:10:18.358Z,2.50
2023-02-04T16:15:20.049Z,2.51
2023-02-04T16:20:21.650Z,2.59
2023-02-04T16:25:23.909Z,2.48
2023-02-04T16:30:25.543Z,2.56
2023-02-04T16:35:27.408Z,2.43
2023-02-04T16:40:29.074Z,2.49
2023-02-04T16:45:30.877Z,2.27
2023-02-04T16:50:32.804Z,2.15
2023-02-04T16:55:35.103Z,2.13
2023-02-04T17:00:38.730Z,1.81
2023-02-04T17:05:41.184Z,1.69
2023-02-04T17:11:02.048Z,1.80
2023-02-04T17:16:03.823Z,1.87
2023-02-04T17:21:05.605Z,1.73
2023-02-04T17:26:07.228Z,1.75
2023-02-04T17:31:08.976Z,1.74
2023-02-04T17:36:11.226Z,1.71
2023-02-04T17:41:12.887Z,1.66
2023-02-04T17:46:14.487Z,1.74
2023-02-04T17:51:16.274Z,1.80
2023-02-04T17:56:17.940Z,1.77
2023-02-04T18:01:21.947Z,1.75
2023-02-04T18:06:29.872Z,1.77
2023-02-04T18:11:37.807Z,1.84
2023-02-04T18:16:40.141Z,1.82
2023-02-04T18:21:41.770Z,1.73
2023-02-04T18:26:49.382Z,1.95
2023-02-04T18:31:57.123Z,2.05
2023-02-04T18:36:58.772Z,2.06
2023-02-04T18:42:00.380Z,2.03
2023-02-04T18:47:09.696Z,1.83
2023-02-04T18:52:19.473Z,1.88
2023-02-04T18:57:35.680Z,1.75
2023-02-04T19:02:49.371Z,1.74
2023-02-04T19:08:13.557Z,1.57
2023-02-04T19:13:25.715Z,1.56
2023-02-04T19:18:32.667Z,1.58
2023-02-04T19:23:36.266Z,1.56
2023-02-04T19:28:38.000Z,1.66
2023-02-04T19:33:45.427Z,1.73
2023-02-04T19:38:48.516Z,1.68
2023-02-04T19:43:50.128Z,1.88
2023-02-04T19:48:52.124Z,1.86
2023-02-04T19:54:20.147Z,1.84
2023-02-04T19:59:28.806Z,1.74
2023-02-04T20:04:36.296Z,1.73
2023-02-04T20:09:37.943Z,1.80
2023-02-04T20:14:46.250Z,1.84
2023-02-04T20:19:50.023Z,1.64
2023-02-04T20:25:05.377Z,1.57
2023-02-04T20:30:11.800Z,1.50
2023-02-04T20:35:13.588Z,1.43
2023-02-04T20:40:22.570Z,1.50
2023-02-04T20:45:41.780Z,1.58
2023-02-04T20:50:52.073Z,1.30
2023-02-04T20:55:53.692Z,1.37
2023-02-04T21:00:56.119Z,1.35
2023-02-04T21:05:59.672Z,1.26
2023-02-04T21:11:02.285Z,1.14
2023-02-04T21:16:04.572Z,1.00
2023-02-04T21:21:08.064Z,1.12
2023-02-04T21:26:09.658Z,0.96
2023-02-04T21:31:12.028Z,0.82
2023-02-04T21:36:13.805Z,0.99
2023-02-04T21:41:16.574Z,0.84
2023-02-04T21:46:18.973Z,0.76
2023-02-04T21:51:20.618Z,0.81
2023-02-04T21:56:22.295Z,0.64
2023-02-04T22:01:23.935Z,0.59
2023-02-04T22:06:25.592Z,0.30
2023-02-04T22:11:27.171Z,0.26
2023-02-04T22:16:28.855Z,0.27
2023-02-04T22:21:30.531Z,0.45
2023-02-04T22:26:32.108Z,0.47
2023-02-04T22:31:33.842Z,0.48
2023-02-04T22:36:35.503Z,0.50
2023-02-04T22:41:37.111Z,0.41
2023-02-04T22:46:38.746Z,0.38
2023-02-04T22:51:40.381Z,0.25
2023-02-04T22:56:41.995Z,0.15
2023-02-04T23:01:43.693Z,0.00
2023-02-04T23:06:45.418Z,-0.08
2023-02-04T23:11:47.060Z,-0.34
2023-02-04T23:16:49.158Z,-0.36
2023-02-04T23:21:50.753Z,-0.45
2023-02-04T23:26:52.401Z,-0.42
2023-02-04T23:31:54.840Z,-0.38
2023-02-04T23:36:56.511Z,-0.35
2023-02-04T23:41:58.446Z,-0.49
2023-02-04T23:47:00.089Z,-0.59
2023-02-04T23:52:02.017Z,-0.73
2023-02-04T23:57:03.942Z,-0.71
